createdAt,value
2023-03-04T00:00:20.827Z,19.30
2023-03-04T00:01:20.780Z,17.90
2023-03-04T00:02:20.976Z,18.50
2023-03-04T00:03:20.762Z,18.50
2023-03-04T00:04:20.778Z,18.10
2023-03-04T00:05:20.728Z,19.10
2023-03-04T00:06:20.766Z,17.90
2023-03-04T00:07:20.693Z,18.10
2023-03-04T00:08:20.736Z,17.80
2023-03-04T00:09:20.675Z,16.80
2023-03-04T00:10:20.733Z,17.70
2023-03-04T00:11:20.644Z,16.90
2023-03-04T00:12:20.655Z,17.40
2023-03-04T00:13:20.645Z,16.80
2023-03-04T00:14:20.634Z,17.60
2023-03-04T00:15:20.603Z,16.20
2023-03-04T00:16:20.694Z,15.80
2023-03-04T00:17:20.592Z,17.20
2023-03-04T00:18:21.523Z,17.20
2023-03-04T00:19:20.555Z,16.20
2023-03-04T00:20:20.578Z,17.10
2023-03-04T00:21:20.546Z,16.50
2023-03-04T00:22:20.572Z,18.00
2023-03-04T00:23:20.516Z,17.90
2023-03-04T00:24:20.571Z,18.10
2023-03-04T00:25:20.491Z,18.60
2023-03-04T00:26:20.502Z,17.80
2023-03-04T00:27:20.472Z,16.80
2023-03-04T00:28:20.520Z,17.40
2023-03-04T00:29:20.451Z,17.50
2023-03-04T00:30:20.456Z,16.50
2023-03-04T00:31:20.485Z,16.80
2023-03-04T00:32:20.555Z,17.30
2023-03-04T00:33:20.400Z,17.60
2023-03-04T00:34:20.458Z,17.00
2023-03-04T00:35:20.407Z,18.30
2023-03-04T00:36:20.402Z,18.10
2023-03-04T00:37:20.359Z,18.10
2023-03-04T00:38:20.372Z,17.60
2023-03-04T00:39:20.330Z,16.60
2023-03-04T00:40:20.342Z,18.50
2023-03-04T00:41:20.301Z,17.20
2023-03-04T00:43:31.950Z,16.50
2023-03-04T00:44:32.024Z,16.40
2023-03-04T00:45:31.936Z,17.80
2023-03-04T00:46:31.890Z,17.30
2023-03-04T00:47:31.900Z,17.20
2023-03-04T00:48:31.860Z,19.20
2023-03-04T00:49:31.901Z,19.50
2023-03-04T00:50:31.852Z,19.40
2023-03-04T00:51:31.870Z,19.00
2023-03-04T00:52:31.936Z,17.90
2023-03-04T00:53:31.838Z,17.80
2023-03-04T00:54:31.801Z,17.70
2023-03-04T00:55:31.892Z,17.90
2023-03-04T00:56:31.775Z,17.30
2023-03-04T00:57:31.838Z,15.90
2023-03-04T00:58:31.760Z,16.40
2023-03-04T00:59:31.778Z,16.80
2023-03-04T01:00:31.783Z,17.50
2023-03-04T01:01:31.778Z,17.20
2023-03-04T01:02:31.750Z,17.90
2023-03-04T01:03:31.721Z,17.60
2023-03-04T01:04:31.721Z,17.80
2023-03-04T01:05:31.727Z,17.30
2023-03-04T01:06:31.674Z,17.10
2023-03-04T01:07:31.678Z,17.60
2023-03-04T01:08:31.650Z,16.40
2023-03-04T01:09:31.677Z,16.80
2023-03-04T01:10:31.624Z,15.70
2023-03-04T01:11:31.656Z,16.50
2023-03-04T01:12:31.622Z,15.90
2023-03-04T01:13:31.605Z,16.70
2023-03-04T01:14:31.590Z,16.60
2023-03-04T01:15:31.617Z,18.00
2023-03-04T01:16:31.608Z,16.30
2023-03-04T01:17:31.595Z,16.90
2023-03-04T01:18:31.531Z,18.30
2023-03-04T01:19:31.551Z,18.40
2023-03-04T01:20:31.521Z,18.50
2023-03-04T01:21:31.542Z,18.40
2023-03-04T01:22:31.498Z,18.20
2023-03-04T01:23:31.512Z,19.70
2023-03-04T01:24:31.472Z,20.50
2023-03-04T01:25:31.501Z,17.50
2023-03-04T01:26:31.450Z,18.90
2023-03-04T01:27:31.450Z,17.70
2023-03-04T01:28:31.430Z,18.40
2023-03-04T01:29:31.448Z,18.10
2023-03-04T01:30:31.448Z,18.10
2023-03-04T01:31:31.410Z,18.70
2023-03-04T01:32:31.420Z,17.70
2023-03-04T01:33:31.394Z,17.30
2023-03-04T01:34:31.359Z,16.10
2023-03-04T01:35:31.464Z,16.50
2023-03-04T01:36:31.344Z,17.50
2023-03-04T01:37:31.341Z,16.30
2023-03-04T01:38:31.318Z,16.80
2023-03-04T01:39:31.349Z,17.00
2023-03-04T01:40:31.329Z,17.00
2023-03-04T01:41:31.301Z,16.40
2023-03-04T01:42:31.281Z,17.20
2023-03-04T01:43:31.289Z,16.50
2023-03-04T01:44:31.299Z,16.30
2023-03-04T01:45:31.249Z,17.00
2023-03-04T01:46:31.345Z,16.50
2023-03-04T01:47:31.242Z,16.50
2023-03-04T01:48:31.194Z,15.80
2023-03-04T01:49:31.231Z,16.90
2023-03-04T01:50:31.225Z,16.50
2023-03-04T01:51:31.196Z,16.60
2023-03-04T01:52:31.181Z,17.20
2023-03-04T01:53:31.173Z,16.00
2023-03-04T01:54:31.130Z,17.40
2023-03-04T01:55:31.183Z,16.50
2023-03-04T01:56:31.113Z,16.50
2023-03-04T01:57:31.140Z,18.10
2023-03-04T01:58:31.089Z,16.80
2023-03-04T01:59:31.100Z,17.00
2023-03-04T02:00:31.116Z,16.20
2023-03-04T02:01:31.135Z,16.50
2023-03-04T02:02:31.039Z,16.00
2023-03-04T02:03:31.100Z,16.50
2023-03-04T02:04:31.108Z,16.80
2023-03-04T02:05:31.050Z,17.30
2023-03-04T02:06:31.012Z,17.00
2023-03-04T02:07:31.044Z,16.90
2023-03-04T02:08:30.974Z,16.00
2023-03-04T02:09:30.990Z,15.70
2023-03-04T02:10:30.970Z,16.10
2023-03-04T02:11:30.991Z,15.70
2023-03-04T02:12:30.932Z,16.20
2023-03-04T02:13:31.055Z,16.20
2023-03-04T02:14:30.914Z,16.10
2023-03-04T02:15:30.948Z,17.00
2023-03-04T02:16:30.896Z,17.10
2023-03-04T02:17:30.936Z,16.90
2023-03-04T02:18:30.885Z,17.50
2023-03-04T02:19:30.859Z,16.60
2023-03-04T02:20:30.916Z,17.70
2023-03-04T02:21:30.861Z,17.10
2023-03-04T02:22:30.855Z,17.10
2023-03-04T02:23:30.808Z,18.50
2023-03-04T02:24:30.989Z,18.70
2023-03-04T02:25:30.891Z,17.40
2023-03-04T02:26:31.745Z,18.80
2023-03-04T02:27:30.783Z,16.70
2023-03-04T02:28:30.784Z,17.40
2023-03-04T02:29:30.768Z,17.70
2023-03-04T02:30:30.763Z,17.70
2023-03-04T02:31:30.793Z,18.20
2023-03-04T02:32:30.808Z,17.10
2023-03-04T02:33:30.708Z,17.40
2023-03-04T02:34:30.709Z,17.40
2023-03-04T02:35:30.722Z,17.40
2023-03-04T02:36:30.697Z,16.70
2023-03-04T02:37:30.667Z,16.80
2023-03-04T02:38:30.679Z,16.50
2023-03-04T02:39:30.636Z,15.40
2023-03-04T02:40:30.684Z,15.70
2023-03-04T02:41:30.628Z,16.60
2023-03-04T02:42:30.651Z,16.60
2023-03-04T02:43:30.587Z,17.00
2023-03-04T02:44:30.814Z,16.70
2023-03-04T02:45:30.629Z,16.60
2023-03-04T02:46:30.616Z,16.60
2023-03-04T02:47:30.547Z,16.70
2023-03-04T02:48:30.556Z,16.50
2023-03-04T02:49:30.518Z,16.50
2023-03-04T02:50:30.572Z,16.60
2023-03-04T02:51:30.508Z,16.50
2023-03-04T02:52:30.620Z,16.20
2023-03-04T02:53:30.486Z,17.50
2023-03-04T02:54:30.501Z,17.50
2023-03-04T02:55:30.492Z,17.10
2023-03-04T02:56:30.477Z,16.80
2023-03-04T02:57:30.440Z,17.20
2023-03-04T02:58:30.456Z,16.80
2023-03-04T02:59:30.502Z,16.20
2023-03-04T03:00:30.444Z,16.90
2023-03-04T03:01:30.440Z,16.60
2023-03-04T03:02:30.450Z,16.60
2023-03-04T03:03:30.357Z,16.20
2023-03-04T03:04:30.385Z,16.40
2023-03-04T03:05:31.067Z,17.30
2023-03-04T03:06:30.382Z,17.00
2023-03-04T03:07:30.358Z,17.50
2023-03-04T03:08:30.329Z,17.10
2023-03-04T03:09:30.304Z,16.50
2023-03-04T03:10:31.100Z,17.30
2023-03-04T03:11:30.301Z,16.80
2023-03-04T03:12:30.294Z,16.70
2023-03-04T03:13:30.256Z,16.70
2023-03-04T03:14:30.286Z,16.70
2023-03-04T03:15:30.241Z,16.10
2023-03-04T03:16:30.323Z,17.00
2023-03-04T03:17:30.206Z,16.10
2023-03-04T03:18:30.276Z,17.10
2023-03-04T03:19:30.483Z,16.60
2023-03-04T03:20:30.212Z,17.70
2023-03-04T03:21:30.175Z,17.70
2023-03-04T03:22:30.195Z,17.50
2023-03-04T03:23:30.141Z,15.70
2023-03-04T03:24:30.178Z,17.40
2023-03-04T03:25:30.142Z,17.70
2023-03-04T03:26:30.393Z,16.70
2023-03-04T03:27:30.097Z,18.00
2023-03-04T03:28:30.124Z,16.80
2023-03-04T03:29:30.073Z,16.80
2023-03-04T03:30:30.112Z,17.30
2023-03-04T03:31:30.160Z,16.80
2023-03-04T03:32:30.085Z,16.30
2023-03-04T03:33:30.050Z,16.40
2023-03-04T03:34:30.058Z,16.80
2023-03-04T03:35:30.027Z,16.10
2023-03-04T03:36:30.109Z,17.90
2023-03-04T03:37:30.008Z,16.80
2023-03-04T03:38:30.003Z,16.10
2023-03-04T03:39:29.999Z,17.10
2023-03-04T03:40:29.982Z,16.10
2023-03-04T03:41:29.980Z,17.00
2023-03-04T03:42:29.956Z,16.30
2023-03-04T03:43:29.922Z,16.40
2023-03-04T03:44:29.930Z,17.30
2023-03-04T03:45:29.929Z,16.30
2023-03-04T03:46:29.942Z,16.40
2023-03-04T03:47:29.886Z,16.40
2023-03-04T03:48:29.879Z,17.20
2023-03-04T03:49:29.864Z,16.20
2023-03-04T03:50:29.903Z,16.10
2023-03-04T03:51:29.833Z,16.40
2023-03-04T03:52:29.867Z,16.10
2023-03-04T03:53:29.809Z,16.00
2023-03-04T03:54:29.825Z,16.00
2023-03-04T03:55:29.869Z,15.70
2023-03-04T03:56:29.809Z,16.30
2023-03-04T03:57:29.783Z,15.70
2023-03-04T03:58:29.785Z,15.90
2023-03-04T03:59:29.881Z,15.80
2023-03-04T04:00:29.829Z,16.20
2023-03-04T04:01:29.719Z,15.90
2023-03-04T04:02:29.854Z,16.40
2023-03-04T04:03:29.701Z,14.50
2023-03-04T04:04:29.712Z,14.60
2023-03-04T04:05:29.730Z,14.90
2023-03-04T04:06:30.588Z,15.90
2023-03-04T04:07:29.679Z,14.70
2023-03-04T04:08:29.692Z,15.30
2023-03-04T04:09:29.638Z,15.20
2023-03-04T04:10:29.654Z,16.20
2023-03-04T04:11:29.615Z,14.60
2023-03-04T04:12:29.638Z,16.30
2023-03-04T04:13:29.594Z,15.60
2023-03-04T04:14:29.596Z,15.30
2023-03-04T04:15:29.576Z,15.10
2023-03-04T04:16:29.611Z,14.80
2023-03-04T04:17:29.546Z,15.70
2023-03-04T04:18:29.556Z,15.40
2023-03-04T04:19:29.555Z,15.20
2023-03-04T04:20:29.530Z,15.80
2023-03-04T04:21:29.507Z,14.90
2023-03-04T04:22:29.506Z,15.20
2023-03-04T04:23:29.482Z,15.90
2023-03-04T04:24:29.567Z,15.40
2023-03-04T04:25:29.447Z,14.10
2023-03-04T04:26:29.477Z,14.70
2023-03-04T04:27:30.368Z,15.10
2023-03-04T04:28:29.448Z,14.90
2023-03-04T04:29:29.414Z,15.30
2023-03-04T04:30:29.444Z,12.50
2023-03-04T04:31:29.442Z,8.60
2023-03-04T04:32:29.471Z,13.90
2023-03-04T04:33:29.379Z,14.70
2023-03-04T04:34:29.401Z,13.80
2023-03-04T04:35:29.362Z,12.20
2023-03-04T04:36:29.351Z,12.80
2023-03-04T04:37:29.319Z,10.70
2023-03-04T04:38:29.365Z,11.20
2023-03-04T04:39:29.295Z,9.10
2023-03-04T04:40:29.300Z,8.40
2023-03-04T04:41:29.284Z,9.10
2023-03-04T04:42:29.310Z,7.70
2023-03-04T04:43:29.241Z,6.90
2023-03-04T04:44:29.251Z,7.60
2023-03-04T04:45:29.221Z,6.20
2023-03-04T04:46:29.242Z,6.50
2023-03-04T04:47:29.288Z,6.80
2023-03-04T04:48:29.209Z,6.20
2023-03-04T04:49:29.260Z,5.70
2023-03-04T04:50:31.207Z,5.80
2023-03-04T04:51:29.172Z,6.00
2023-03-04T04:52:29.175Z,5.10
2023-03-04T04:53:29.118Z,5.80
2023-03-04T04:54:29.170Z,5.20
2023-03-04T04:55:29.125Z,5.00
2023-03-04T04:56:29.200Z,4.70
2023-03-04T04:57:29.102Z,5.20
2023-03-04T04:58:29.099Z,5.30
2023-03-04T04:59:29.080Z,5.00
2023-03-04T05:00:29.079Z,5.20
2023-03-04T05:01:29.084Z,6.00
2023-03-04T05:02:29.080Z,4.60
2023-03-04T05:03:29.094Z,5.80
2023-03-04T05:04:29.041Z,5.20
2023-03-04T05:05:28.991Z,5.10
2023-03-04T05:06:29.018Z,4.50
2023-03-04T05:07:29.005Z,5.30
2023-03-04T05:08:29.774Z,4.50
2023-03-04T05:09:28.964Z,4.70
2023-03-04T05:10:28.961Z,5.20
2023-03-04T05:11:28.930Z,4.80
2023-03-04T05:12:28.975Z,4.60
2023-03-04T05:13:28.909Z,4.70
2023-03-04T05:14:28.988Z,5.10
2023-03-04T05:15:28.909Z,5.00
2023-03-04T05:16:28.953Z,4.50
2023-03-04T05:17:28.881Z,4.90
2023-03-04T05:18:28.881Z,5.10
2023-03-04T05:19:28.844Z,4.60
2023-03-04T05:20:28.885Z,4.70
2023-03-04T05:21:29.013Z,5.00
2023-03-04T05:22:28.853Z,4.90
2023-03-04T05:23:28.809Z,5.50
2023-03-04T05:24:28.824Z,4.70
2023-03-04T05:25:28.779Z,5.10
2023-03-04T05:26:28.795Z,5.80
2023-03-04T05:27:28.798Z,5.00
2023-03-04T05:28:29.653Z,5.20
2023-03-04T05:29:28.780Z,5.40
2023-03-04T05:30:28.741Z,5.00
2023-03-04T05:31:28.776Z,5.50
2023-03-04T05:32:28.771Z,5.90
2023-03-04T05:33:28.702Z,6.20
2023-03-04T05:34:28.752Z,5.80
2023-03-04T05:35:29.172Z,5.20
2023-03-04T05:36:28.707Z,5.70
2023-03-04T05:37:28.666Z,4.90
2023-03-04T05:38:28.650Z,5.50
2023-03-04T05:39:28.633Z,5.10
2023-03-04T05:40:28.637Z,6.10
2023-03-04T05:41:28.622Z,5.50
2023-03-04T05:42:28.610Z,5.20
2023-03-04T05:43:28.572Z,5.30
2023-03-04T05:44:28.641Z,6.00
2023-03-04T05:45:28.548Z,5.40
2023-03-04T05:46:28.649Z,5.80
2023-03-04T05:47:28.537Z,5.60
2023-03-04T05:48:28.541Z,6.30
2023-03-04T05:49:28.523Z,5.70
2023-03-04T05:50:28.531Z,5.60
2023-03-04T05:51:28.492Z,5.90
2023-03-04T05:52:28.509Z,5.80
2023-03-04T05:53:28.506Z,5.50
2023-03-04T05:54:28.472Z,6.30
2023-03-04T05:55:28.441Z,5.60
2023-03-04T05:56:28.446Z,6.10
2023-03-04T05:57:29.848Z,6.30
2023-03-04T05:58:28.433Z,5.70
2023-03-04T05:59:28.407Z,5.10
2023-03-04T06:00:28.424Z,5.50
2023-03-04T06:01:28.374Z,5.80
2023-03-04T06:02:28.443Z,5.10
2023-03-04T06:03:28.404Z,5.70
2023-03-04T06:04:28.369Z,6.40
2023-03-04T06:05:28.344Z,5.60
2023-03-04T06:06:28.336Z,6.30
2023-03-04T06:07:28.316Z,6.20
2023-03-04T06:08:28.348Z,6.10
2023-03-04T06:09:28.280Z,5.30
2023-03-04T06:10:28.312Z,5.70
2023-03-04T06:11:28.267Z,5.60
2023-03-04T06:12:28.282Z,6.00
2023-03-04T06:13:28.272Z,5.40
2023-03-04T06:14:28.273Z,5.00
2023-03-04T06:15:28.206Z,4.60
2023-03-04T06:16:28.344Z,5.00
2023-03-04T06:17:35.669Z,5.10
2023-03-04T06:18:29.941Z,5.60
2023-03-04T06:19:28.169Z,5.20
2023-03-04T06:20:28.188Z,4.90
2023-03-04T06:21:28.160Z,5.20
2023-03-04T06:22:28.167Z,5.20
2023-03-04T06:23:28.139Z,5.10
2023-03-04T06:24:28.130Z,5.20
2023-03-04T06:25:28.104Z,5.10
2023-03-04T06:26:28.140Z,5.80
2023-03-04T06:27:28.130Z,5.00
2023-03-04T06:28:28.100Z,4.70
2023-03-04T06:29:28.056Z,5.40
2023-03-04T06:30:28.092Z,4.60
2023-03-04T06:31:28.122Z,5.10
2023-03-04T06:32:28.153Z,4.80
2023-03-04T06:33:28.053Z,4.70
2023-03-04T06:34:28.016Z,5.20
2023-03-04T06:35:28.627Z,4.80
2023-03-04T06:36:27.985Z,4.00
2023-03-04T06:37:28.108Z,4.80
2023-03-04T06:38:27.965Z,4.80
2023-03-04T06:39:27.983Z,4.40
2023-03-04T06:40:27.930Z,4.20
2023-03-04T06:41:27.924Z,4.60
2023-03-04T06:42:27.918Z,4.60
2023-03-04T06:43:28.018Z,4.40
2023-03-04T06:44:27.893Z,4.10
2023-03-04T06:45:27.926Z,5.00
2023-03-04T06:46:30.409Z,3.90
2023-03-04T06:47:27.896Z,4.00
2023-03-04T06:48:27.854Z,4.80
2023-03-04T06:49:27.848Z,4.40
2023-03-04T06:50:27.954Z,4.40
2023-03-04T06:51:27.845Z,4.20
2023-03-04T06:52:27.793Z,4.60
2023-03-04T06:53:27.852Z,3.60
2023-03-04T06:54:27.769Z,3.70
2023-03-04T06:55:27.772Z,3.80
2023-03-04T06:56:27.759Z,4.20
2023-03-04T06:57:27.791Z,3.70
2023-03-04T06:58:27.748Z,4.10
2023-03-04T06:59:27.720Z,3.50
2023-03-04T07:00:27.819Z,3.70
2023-03-04T07:01:27.711Z,3.90
2023-03-04T07:02:27.681Z,4.40
2023-03-04T07:03:27.693Z,4.10
2023-03-04T07:04:27.701Z,4.40
2023-03-04T07:05:27.677Z,3.80
2023-03-04T07:06:27.636Z,3.70
2023-03-04T07:07:27.660Z,4.10
2023-03-04T07:08:27.639Z,3.90
2023-03-04T07:09:27.631Z,4.20
2023-03-04T07:10:27.624Z,4.50
2023-03-04T07:11:27.634Z,3.60
2023-03-04T07:12:27.731Z,4.70
2023-03-04T07:13:27.572Z,4.30
2023-03-04T07:14:27.546Z,3.80
2023-03-04T07:15:27.551Z,4.40
2023-03-04T07:16:27.626Z,3.80
2023-03-04T07:17:27.736Z,3.50
2023-03-04T07:18:27.525Z,3.50
2023-03-04T07:19:27.656Z,3.20
2023-03-04T07:20:29.096Z,4.00
2023-03-04T07:21:27.560Z,3.80
2023-03-04T07:22:27.487Z,4.00
2023-03-04T07:23:27.471Z,3.80
2023-03-04T07:24:27.439Z,3.80
2023-03-04T07:25:27.428Z,3.80
2023-03-04T07:26:27.413Z,4.50
2023-03-04T07:27:27.435Z,3.60
2023-03-04T07:28:27.408Z,3.20
2023-03-04T07:29:27.413Z,3.60
2023-03-04T07:30:27.370Z,4.20
2023-03-04T07:31:27.406Z,3.50
2023-03-04T07:32:27.377Z,3.90
2023-03-04T07:33:27.447Z,3.80
2023-03-04T07:34:27.465Z,3.20
2023-03-04T07:35:27.603Z,3.30
2023-03-04T07:36:27.306Z,3.70
2023-03-04T07:37:27.307Z,3.50
2023-03-04T07:38:27.311Z,3.30
2023-03-04T07:39:27.269Z,3.60
2023-03-04T07:40:27.267Z,3.30
2023-03-04T07:41:27.519Z,2.80
2023-03-04T07:42:27.288Z,3.30
2023-03-04T07:43:27.261Z,3.10
2023-03-04T07:44:27.226Z,3.10
2023-03-04T07:45:27.230Z,3.40
2023-03-04T07:46:27.178Z,3.10
2023-03-04T07:47:27.199Z,3.30
2023-03-04T07:48:27.183Z,3.20
2023-03-04T07:49:27.166Z,3.30
2023-03-04T07:50:27.133Z,3.00
2023-03-04T07:51:27.187Z,3.10
2023-03-04T07:52:27.116Z,2.90
2023-03-04T07:53:27.135Z,2.90
2023-03-04T07:54:27.099Z,3.20
2023-03-04T07:55:27.144Z,3.00
2023-03-04T07:56:27.082Z,3.10
2023-03-04T07:57:27.089Z,3.60
2023-03-04T07:58:27.038Z,3.70
2023-03-04T07:59:27.052Z,3.40
2023-03-04T08:00:27.065Z,3.40
2023-03-04T08:01:27.035Z,3.30
2023-03-04T08:02:27.067Z,2.90
2023-03-04T08:03:27.019Z,3.10
2023-03-04T08:04:27.033Z,2.80
2023-03-04T08:05:26.986Z,3.10
2023-03-04T08:06:26.989Z,3.10
2023-03-04T08:07:26.966Z,3.30
2023-03-04T08:08:26.926Z,2.90
2023-03-04T08:09:26.946Z,3.90
2023-03-04T08:10:26.898Z,3.50
2023-03-04T08:11:26.980Z,3.50
2023-03-04T08:12:26.876Z,3.30
2023-03-04T08:13:26.907Z,2.90
2023-03-04T08:14:26.854Z,2.70
2023-03-04T08:15:27.034Z,3.20
2023-03-04T08:16:26.937Z,3.70
2023-03-04T08:17:26.845Z,2.40
2023-03-04T08:18:26.844Z,2.80
2023-03-04T08:19:26.936Z,2.50
2023-03-04T08:20:26.823Z,2.60
2023-03-04T08:21:26.815Z,3.00
2023-03-04T08:22:26.774Z,3.10
2023-03-04T08:23:26.827Z,3.40
2023-03-04T08:24:26.740Z,3.50
2023-03-04T08:25:26.798Z,3.10
2023-03-04T08:26:26.704Z,2.70
2023-03-04T08:27:26.730Z,2.80
2023-03-04T08:28:26.701Z,3.70
2023-03-04T08:29:26.740Z,3.10
2023-03-04T08:30:26.723Z,2.80
2023-03-04T08:31:26.780Z,3.20
2023-03-04T08:32:27.202Z,3.00
2023-03-04T08:33:26.680Z,2.80
2023-03-04T08:34:26.642Z,2.90
2023-03-04T08:35:26.712Z,2.80
2023-03-04T08:36:26.657Z,2.80
2023-03-04T08:37:26.617Z,2.80
2023-03-04T08:38:26.610Z,2.80
2023-03-04T08:39:26.609Z,2.60
2023-03-04T08:40:26.648Z,2.50
2023-03-04T08:41:26.568Z,2.90
2023-03-04T08:42:27.003Z,2.90
2023-03-04T08:43:26.593Z,2.80
2023-03-04T08:44:26.876Z,2.90
2023-03-04T08:45:26.536Z,2.40
2023-03-04T08:46:26.597Z,2.20
2023-03-04T08:47:26.505Z,2.80
2023-03-04T08:48:26.475Z,2.40
2023-03-04T08:49:26.494Z,2.40
2023-03-04T08:50:26.460Z,3.00
2023-03-04T08:51:26.457Z,2.90
2023-03-04T08:52:26.421Z,3.20
2023-03-04T08:53:26.459Z,2.60
2023-03-04T08:54:26.418Z,2.30
2023-03-04T08:55:26.434Z,2.50
2023-03-04T08:56:26.721Z,2.80
2023-03-04T08:57:27.006Z,2.60
2023-03-04T08:58:26.531Z,2.90
2023-03-04T08:59:26.384Z,2.40
2023-03-04T09:00:26.369Z,2.50
2023-03-04T09:01:26.365Z,2.90
2023-03-04T09:02:26.313Z,2.30
2023-03-04T09:03:26.483Z,2.50
2023-03-04T09:04:26.434Z,2.80
2023-03-04T09:05:26.310Z,2.00
2023-03-04T09:06:26.282Z,2.30
2023-03-04T09:07:26.282Z,2.30
2023-03-04T09:08:26.272Z,2.40
2023-03-04T09:09:26.253Z,2.20
2023-03-04T09:10:26.223Z,2.00
2023-03-04T09:11:26.237Z,2.30
2023-03-04T09:12:26.201Z,2.20
2023-03-04T09:13:26.564Z,2.60
2023-03-04T09:14:26.245Z,2.00
2023-03-04T09:15:26.197Z,2.00
2023-03-04T09:16:26.247Z,2.40
2023-03-04T09:17:26.170Z,2.30
2023-03-04T09:18:26.140Z,2.10
2023-03-04T09:19:26.176Z,2.30
2023-03-04T09:20:26.118Z,2.40
2023-03-04T09:21:26.140Z,2.60
2023-03-04T09:22:26.101Z,2.50
2023-03-04T09:23:26.105Z,2.40
2023-03-04T09:24:26.079Z,2.10
2023-03-04T09:25:26.092Z,2.00
2023-03-04T09:26:26.094Z,2.10
2023-03-04T09:27:26.078Z,2.70
2023-03-04T09:28:26.038Z,2.20
2023-03-04T09:29:26.099Z,2.80
2023-03-04T09:30:28.037Z,2.40
2023-03-04T09:31:26.102Z,3.00
2023-03-04T09:32:26.039Z,2.00
2023-03-04T09:33:25.993Z,2.10
2023-03-04T09:34:25.994Z,2.20
2023-03-04T09:35:26.036Z,2.80
2023-03-04T09:36:25.998Z,2.20
2023-03-04T09:37:26.167Z,2.70
2023-03-04T09:38:25.941Z,2.80
2023-03-04T09:39:25.948Z,1.90
2023-03-04T09:40:25.935Z,2.60
2023-03-04T09:41:25.902Z,2.40
2023-03-04T09:42:25.870Z,2.30
2023-03-04T09:43:25.924Z,2.10
2023-03-04T09:44:25.857Z,2.60
2023-03-04T09:45:25.883Z,2.40
2023-03-04T09:46:25.920Z,2.40
2023-03-04T09:47:25.859Z,2.00
2023-03-04T09:48:25.797Z,2.10
2023-03-04T09:49:25.817Z,2.20
2023-03-04T09:50:25.834Z,2.10
2023-03-04T09:51:25.797Z,2.20
2023-03-04T09:52:25.781Z,2.20
2023-03-04T09:53:25.774Z,2.20
2023-03-04T09:54:25.858Z,2.20
2023-03-04T09:55:25.777Z,2.20
2023-03-04T09:56:25.722Z,1.80
2023-03-04T09:57:25.726Z,2.00
2023-03-04T09:58:25.691Z,2.00
2023-03-04T09:59:25.740Z,1.90
2023-03-04T10:00:25.708Z,2.00
2023-03-04T10:01:25.673Z,2.10
2023-03-04T10:02:25.637Z,2.50
2023-03-04T10:03:25.699Z,2.10
2023-03-04T10:04:25.703Z,1.90
2023-03-04T10:05:26.153Z,2.20
2023-03-04T10:06:25.606Z,2.30
2023-03-04T10:07:25.604Z,2.10
2023-03-04T10:08:25.564Z,2.10
2023-03-04T10:09:25.613Z,2.10
2023-03-04T10:10:25.576Z,2.40
2023-03-04T10:11:25.571Z,2.20
2023-03-04T10:12:25.524Z,2.70
2023-03-04T10:13:25.549Z,2.60
2023-03-04T10:14:25.524Z,2.30
2023-03-04T10:15:25.536Z,2.90
2023-03-04T10:16:25.525Z,2.10
2023-03-04T10:17:25.499Z,2.20
2023-03-04T10:18:25.507Z,2.10
2023-03-04T10:19:25.481Z,1.90
2023-03-04T10:20:25.485Z,2.00
2023-03-04T10:21:25.500Z,2.20
2023-03-04T10:22:25.382Z,2.00
2023-03-04T10:23:25.410Z,2.00
2023-03-04T10:24:25.428Z,2.00
2023-03-04T10:25:25.475Z,2.30
2023-03-04T10:26:25.554Z,2.10
2023-03-04T10:27:25.367Z,2.00
2023-03-04T10:28:25.313Z,1.70
2023-03-04T10:29:25.344Z,2.10
2023-03-04T10:30:25.308Z,2.30
2023-03-04T10:31:25.386Z,2.90
2023-03-04T10:32:25.391Z,4.00
2023-03-04T10:33:25.312Z,2.20
2023-03-04T10:34:25.453Z,2.20
2023-03-04T10:35:25.348Z,1.70
2023-03-04T10:36:25.240Z,1.60
2023-03-04T10:37:25.248Z,2.00
2023-03-04T10:38:25.199Z,1.90
2023-03-04T10:39:25.261Z,1.50
2023-03-04T10:40:25.198Z,1.40
2023-03-04T10:41:25.208Z,1.60
2023-03-04T10:42:25.297Z,1.60
2023-03-04T10:43:29.160Z,1.60
2023-03-04T10:44:25.117Z,1.70
2023-03-04T10:45:25.182Z,1.70
2023-03-04T10:46:25.579Z,1.70
2023-03-04T10:47:25.127Z,1.60
2023-03-04T10:48:25.144Z,1.60
2023-03-04T10:49:25.072Z,1.60
2023-03-04T10:50:25.100Z,1.20
2023-03-04T10:51:25.045Z,1.40
2023-03-04T10:52:25.077Z,1.50
2023-03-04T10:53:25.034Z,1.10
2023-03-04T10:54:25.032Z,1.20
2023-03-04T10:55:25.022Z,1.40
2023-03-04T10:56:25.047Z,1.30
2023-03-04T10:57:24.971Z,1.30
2023-03-04T10:58:25.018Z,1.40
2023-03-04T10:59:25.062Z,1.40
2023-03-04T11:00:25.082Z,1.20
2023-03-04T11:01:24.968Z,1.20
2023-03-04T11:02:25.113Z,2.50
2023-03-04T11:03:26.434Z,1.70
2023-03-04T11:04:24.933Z,1.40
2023-03-04T11:05:24.910Z,1.70
2023-03-04T11:06:24.928Z,1.60
2023-03-04T11:07:24.864Z,1.70
2023-03-04T11:08:24.911Z,1.50
2023-03-04T11:09:24.841Z,1.70
2023-03-04T11:10:24.861Z,1.70
2023-03-04T11:11:24.836Z,2.20
2023-03-04T11:12:24.868Z,2.00
2023-03-04T11:13:26.472Z,1.60
2023-03-04T11:14:24.799Z,2.00
2023-03-04T11:15:24.768Z,2.40
2023-03-04T11:16:24.838Z,1.70
2023-03-04T11:17:24.785Z,1.90
2023-03-04T11:18:24.785Z,2.30
2023-03-04T11:19:24.746Z,1.90
2023-03-04T11:20:25.000Z,2.10
2023-03-04T11:21:25.102Z,1.60
2023-03-04T11:22:24.768Z,2.00
2023-03-04T11:23:24.673Z,2.50
2023-03-04T11:24:28.678Z,2.70
2023-03-04T11:25:24.650Z,1.80
2023-03-04T11:26:24.825Z,2.00
2023-03-04T11:27:24.734Z,1.40
2023-03-04T11:28:24.632Z,1.30
2023-03-04T11:29:24.619Z,1.10
2023-03-04T11:30:24.614Z,1.30
2023-03-04T11:31:24.625Z,0.90
2023-03-04T11:32:24.700Z,1.20
2023-03-04T11:33:24.594Z,1.20
2023-03-04T11:34:24.574Z,1.30
2023-03-04T11:35:24.551Z,1.20
2023-03-04T11:36:24.571Z,1.00
2023-03-04T11:37:24.526Z,1.60
2023-03-04T11:38:24.541Z,1.20
2023-03-04T11:39:24.522Z,1.30
2023-03-04T11:40:25.137Z,1.20
2023-03-04T11:41:24.541Z,1.60
2023-03-04T11:42:24.509Z,1.80
2023-03-04T11:43:24.492Z,1.50
2023-03-04T11:44:24.494Z,1.60
2023-03-04T11:45:29.186Z,1.70
2023-03-04T11:46:25.496Z,2.00
2023-03-04T11:47:24.730Z,1.90
2023-03-04T11:48:24.449Z,1.90
2023-03-04T11:49:24.410Z,1.70
2023-03-04T11:50:24.424Z,1.70
2023-03-04T11:51:24.405Z,1.70
2023-03-04T11:52:24.400Z,2.10
2023-03-04T11:53:24.369Z,2.90
2023-03-04T11:54:24.391Z,2.70
2023-03-04T11:55:24.371Z,2.60
2023-03-04T11:56:24.468Z,2.40
2023-03-04T11:57:24.346Z,2.20
2023-03-04T11:58:24.330Z,2.20
2023-03-04T11:59:24.314Z,3.50
2023-03-04T12:00:24.315Z,2.80
2023-03-04T12:01:24.441Z,2.60
2023-03-04T12:02:24.321Z,1.90
2023-03-04T12:03:24.329Z,2.40
2023-03-04T12:04:24.350Z,2.30
2023-03-04T12:05:24.237Z,2.50
2023-03-04T12:06:24.435Z,2.20
2023-03-04T12:07:24.633Z,2.40
2023-03-04T12:08:24.429Z,2.40
2023-03-04T12:09:24.231Z,3.00
2023-03-04T12:10:24.202Z,2.70
2023-03-04T12:11:24.867Z,2.40
2023-03-04T12:12:24.180Z,2.40
2023-03-04T12:13:24.135Z,2.70
2023-03-04T12:14:24.154Z,2.50
2023-03-04T12:15:24.116Z,2.40
2023-03-04T12:16:24.190Z,2.50
2023-03-04T12:17:24.108Z,2.10
2023-03-04T12:18:24.112Z,2.30
2023-03-04T12:19:24.067Z,2.30
2023-03-04T12:20:24.085Z,2.70
2023-03-04T12:21:24.091Z,2.10
2023-03-04T12:22:24.056Z,2.30
2023-03-04T12:23:24.034Z,2.20
2023-03-04T12:24:24.073Z,2.30
2023-03-04T12:25:24.006Z,2.20
2023-03-04T12:26:24.036Z,1.90
2023-03-04T12:27:24.255Z,2.10
2023-03-04T12:28:24.165Z,2.40
2023-03-04T12:29:23.985Z,2.70
2023-03-04T12:30:23.981Z,3.40
2023-03-04T12:31:23.961Z,3.10
2023-03-04T12:32:24.047Z,3.00
2023-03-04T12:33:23.965Z,2.80
2023-03-04T12:34:24.040Z,3.20
2023-03-04T12:35:23.947Z,3.30
2023-03-04T12:36:23.972Z,2.60
2023-03-04T12:37:23.925Z,2.60
2023-03-04T12:38:23.901Z,2.60
2023-03-04T12:39:23.845Z,2.60
2023-03-04T12:40:23.855Z,2.20
2023-03-04T12:41:24.140Z,2.20
2023-03-04T12:42:23.950Z,2.60
2023-03-04T12:43:23.807Z,2.70
2023-03-04T12:44:23.803Z,2.20
2023-03-04T12:45:23.805Z,2.10
2023-03-04T12:46:23.818Z,2.20
2023-03-04T12:47:23.771Z,2.20
2023-03-04T12:48:23.772Z,1.90
2023-03-04T12:49:24.090Z,1.90
2023-03-04T12:50:23.741Z,2.10
2023-03-04T12:51:23.710Z,2.20
2023-03-04T12:52:23.712Z,2.00
2023-03-04T12:53:23.699Z,1.90
2023-03-04T12:54:23.706Z,1.90
2023-03-04T12:55:23.663Z,1.70
2023-03-04T12:56:23.766Z,2.10
2023-03-04T12:57:23.637Z,2.00
2023-03-04T12:58:23.645Z,2.40
2023-03-04T12:59:23.635Z,2.20
2023-03-04T13:00:23.633Z,2.20
2023-03-04T13:01:23.764Z,2.20
2023-03-04T13:02:23.657Z,2.20
2023-03-04T13:03:23.712Z,2.50
2023-03-04T13:04:23.586Z,2.90
2023-03-04T13:05:23.572Z,2.40
2023-03-04T13:06:23.563Z,2.50
2023-03-04T13:07:23.709Z,2.20
2023-03-04T13:08:23.535Z,2.20
2023-03-04T13:09:23.509Z,1.80
2023-03-04T13:10:23.513Z,2.10